createdAt,value
2018-05-12T10:13:57.284Z,22.29
2018-05-12T10:16:24.919Z,21.73
2018-05-12T10:18:52.533Z,20.70
2018-05-12T10:21:20.346Z,20.36
2018-05-12T10:23:48.213Z,20.15
2018-05-12T10:26:15.837Z,20.11
2018-05-12T10:28:43.867Z,20.46
2018-05-12T10:31:11.614Z,20.81
2018-05-12T10:33:39.237Z,20.67
2018-05-12T10:36:07.445Z,20.63
2018-05-12T10:38:36.458Z,20.30
2018-05-12T10:41:04.074Z,20.46
2018-05-12T10:43:31.675Z,20.51
2018-05-12T10:45:59.435Z,20.68
2018-05-12T10:48:27.124Z,20.65
2018-05-12T10:50:54.692Z,20.60
2018-05-12T10:53:23.646Z,20.49
2018-05-12T10:55:51.393Z,21.09
2018-05-12T10:58:19.202Z,21.71
2018-05-12T11:00:46.823Z,21.67
2018-05-12T11:03:14.433Z,21.67
2018-05-12T11:05:42.300Z,21.45
2018-05-12T11:08:10.556Z,20.79
2018-05-12T11:10:38.165Z,20.48
2018-05-12T11:13:05.781Z,20.27
2018-05-12T11:15:33.955Z,20.79
2018-05-12T11:18:01.528Z,20.99
2018-05-12T11:20:29.333Z,21.57
2018-05-12T11:22:56.915Z,21.30
2018-05-12T11:25:25.568Z,21.06
2018-05-12T11:27:54.978Z,20.99
2018-05-12T11:30:22.851Z,21.31
2018-05-12T11:32:50.633Z,21.31
2018-05-12T11:35:18.238Z,21.49
2018-05-12T11:37:46.185Z,21.81
2018-05-12T11:40:14.538Z,22.05
2018-05-12T11:42:42.136Z,21.74
2018-05-12T11:45:09.765Z,22.04
2018-05-12T11:47:37.397Z,22.23
2018-05-12T11:50:05.273Z,22.36
2018-05-12T11:52:33.313Z,21.80
2018-05-12T11:55:00.903Z,21.46
2018-05-12T11:57:28.512Z,21.02
2018-05-12T11:59:56.519Z,20.77
2018-05-12T12:02:24.206Z,21.20
2018-05-12T12:04:51.778Z,21.53
2018-05-12T12:07:19.396Z,21.68
2018-05-12T12:09:47.025Z,21.92
2018-05-12T12:12:14.701Z,21.94
2018-05-12T12:14:42.320Z,21.72
2018-05-12T12:17:10.960Z,22.00
2018-05-12T12:19:38.710Z,22.01
2018-05-12T12:22:06.317Z,22.08
2018-05-12T12:24:34.300Z,22.21
2018-05-12T12:27:03.448Z,22.15
2018-05-12T12:29:31.313Z,21.99
2018-05-12T12:32:00.273Z,21.81
2018-05-12T12:34:27.851Z,22.19
2018-05-12T12:36:57.478Z,22.29
2018-05-12T12:39:26.880Z,22.39
2018-05-12T12:41:54.499Z,22.48
2018-05-12T12:44:22.074Z,22.34
2018-05-12T12:46:49.677Z,22.15
2018-05-12T12:49:17.344Z,21.78
2018-05-12T12:51:46.389Z,22.02
2018-05-12T12:54:15.509Z,21.81
2018-05-12T12:56:43.119Z,21.92
2018-05-12T12:59:10.725Z,21.89
2018-05-12T13:01:38.353Z,22.11
2018-05-12T13:04:07.612Z,22.14
2018-05-12T13:06:35.931Z,22.34
2018-05-12T13:09:03.553Z,22.67
2018-05-12T13:11:32.739Z,22.44
2018-05-12T13:14:00.397Z,22.29
2018-05-12T13:16:27.981Z,22.29
2018-05-12T13:18:55.601Z,22.49
2018-05-12T13:21:23.178Z,22.62
2018-05-12T13:23:55.182Z,22.76
2018-05-12T13:26:22.862Z,22.53
2018-05-12T13:28:50.471Z,22.24
2018-05-12T13:31:18.113Z,22.12
2018-05-12T13:33:45.737Z,22.16
2018-05-12T13:36:13.313Z,21.96
2018-05-12T13:38:40.928Z,22.18
2018-05-12T13:41:08.501Z,22.26
2018-05-12T13:43:36.126Z,22.46
2018-05-12T13:46:03.757Z,22.32
2018-05-12T13:48:31.345Z,21.99
2018-05-12T13:51:03.719Z,21.59
2018-05-12T13:53:31.617Z,21.56
2018-05-12T13:55:59.244Z,21.63
2018-05-12T13:58:27.445Z,22.12
2018-05-12T14:00:55.052Z,22.39
2018-05-12T14:03:23.089Z,22.44
2018-05-12T14:05:50.754Z,22.26
2018-05-12T14:08:18.368Z,22.45
2018-05-12T14:10:45.953Z,22.31
2018-05-12T14:13:13.723Z,22.06
2018-05-12T14:15:41.666Z,22.10
2018-05-12T14:18:09.628Z,22.01
2018-05-12T14:20:37.329Z,21.92
2018-05-12T14:23:04.982Z,21.95
2018-05-12T14:25:32.561Z,21.94
2018-05-12T14:28:00.169Z,22.05
2018-05-12T14:30:27.814Z,22.25
2018-05-12T14:32:55.531Z,22.31
2018-05-12T14:35:23.096Z,22.26
2018-05-12T14:37:50.721Z,22.36
2018-05-12T14:40:18.327Z,22.32
2018-05-12T14:42:45.988Z,22.21
2018-05-12T14:45:13.618Z,22.23
2018-05-12T14:47:41.260Z,22.34
2018-05-12T14:50:08.889Z,22.25
2018-05-12T14:52:36.502Z,22.25
2018-05-12T14:55:04.486Z,22.28
2018-05-12T14:57:32.544Z,22.21
2018-05-12T15:00:00.130Z,22.03
2018-05-12T15:02:28.378Z,21.92
2018-05-12T15:04:55.997Z,21.85
2018-05-12T15:07:24.212Z,22.19
2018-05-12T15:09:51.970Z,22.23
2018-05-12T15:12:19.718Z,22.14
2018-05-12T15:14:47.381Z,22.21
2018-05-12T15:17:16.513Z,22.18
2018-05-12T15:19:44.141Z,22.18
2018-05-12T15:22:12.927Z,22.23
2018-05-12T15:24:41.630Z,22.27
2018-05-12T15:27:09.234Z,22.35
2018-05-12T15:29:36.806Z,22.16
2018-05-12T15:32:04.910Z,21.89
2018-05-12T15:34:32.524Z,21.90
2018-05-12T15:37:01.122Z,22.19
2018-05-12T15:39:29.320Z,22.17
2018-05-12T15:41:56.937Z,21.96
2018-05-12T15:44:24.853Z,22.06
2018-05-12T15:46:52.718Z,21.93
2018-05-12T15:49:20.480Z,21.63
2018-05-12T15:51:48.474Z,21.51
2018-05-12T15:54:16.126Z,21.47
2018-05-12T15:56:44.944Z,21.30
2018-05-12T15:59:14.236Z,21.44
2018-05-12T16:01:42.049Z,21.19
2018-05-12T16:04:10.304Z,21.08
2018-05-12T16:06:38.714Z,20.95
2018-05-12T16:09:06.845Z,20.98
2018-05-12T16:11:35.019Z,20.71
2018-05-12T16:14:02.989Z,20.63
2018-05-12T16:16:30.788Z,20.55
2018-05-12T16:18:58.409Z,20.43
2018-05-12T16:21:26.576Z,20.32
2018-05-12T16:23:54.386Z,20.34
2018-05-12T16:26:23.231Z,20.36
2018-05-12T16:28:51.141Z,20.42
2018-05-12T16:31:18.946Z,20.41
2018-05-12T16:33:46.573Z,20.24
2018-05-12T16:36:14.166Z,20.14
2018-05-12T16:38:41.909Z,20.22
2018-05-12T16:41:10.064Z,20.10
2018-05-12T16:43:39.094Z,20.22
2018-05-12T16:46:07.098Z,20.25
2018-05-12T16:48:34.687Z,20.35
2018-05-12T16:51:02.622Z,20.26
2018-05-12T16:53:30.222Z,20.28
2018-05-12T16:55:58.380Z,20.29
2018-05-12T16:58:25.968Z,20.11
2018-05-12T17:00:53.589Z,20.07
2018-05-12T17:03:21.805Z,20.03
2018-05-12T17:05:49.376Z,19.95
2018-05-12T17:08:17.007Z,19.88
2018-05-12T17:10:44.578Z,19.65
2018-05-12T17:13:12.229Z,19.62
2018-05-12T17:15:39.808Z,19.39
2018-05-12T17:18:07.415Z,19.35
2018-05-12T17:20:35.029Z,19.25
2018-05-12T17:23:02.927Z,19.20
2018-05-12T17:25:30.497Z,19.20
2018-05-12T17:27:58.117Z,19.15
2018-05-12T17:30:25.708Z,19.08
2018-05-12T17:32:53.291Z,19.04
2018-05-12T17:35:20.911Z,19.03
2018-05-12T17:37:48.555Z,19.03
2018-05-12T17:40:16.185Z,18.89
2018-05-12T17:42:45.170Z,18.83
2018-05-12T17:45:13.464Z,18.69
2018-05-12T17:47:41.103Z,18.65
2018-05-12T17:50:08.818Z,18.57
2018-05-12T17:52:36.385Z,18.47
2018-05-12T17:55:04.924Z,18.45
2018-05-12T17:57:33.372Z,18.35
2018-05-12T18:00:01.573Z,18.35
2018-05-12T18:02:30.557Z,18.18
2018-05-12T18:04:58.140Z,18.02
2018-05-12T18:07:25.749Z,18.04
2018-05-12T18:09:53.332Z,17.93
2018-05-12T18:12:21.486Z,17.87
2018-05-12T18:14:49.164Z,17.75
2018-05-12T18:17:16.828Z,17.59
2018-05-12T18:19:44.433Z,17.57
2018-05-12T18:22:12.048Z,17.54
2018-05-12T18:24:39.663Z,17.47
2018-05-12T18:27:07.286Z,17.43
2018-05-12T18:29:34.859Z,17.39
2018-05-12T18:32:03.268Z,17.35
2018-05-12T18:34:31.140Z,17.33
2018-05-12T18:36:59.629Z,17.36
2018-05-12T18:39:27.473Z,17.30
2018-05-12T18:41:55.058Z,17.22
2018-05-12T18:44:22.829Z,17.16
2018-05-12T18:46:50.755Z,17.06
2018-05-12T18:49:18.368Z,17.04
2018-05-12T18:51:45.997Z,16.95
2018-05-12T18:54:13.623Z,16.82
2018-05-12T18:56:41.332Z,16.81
2018-05-12T18:59:08.925Z,16.71
2018-05-12T19:01:36.736Z,16.63
2018-05-12T19:04:04.942Z,16.61
2018-05-12T19:06:32.567Z,16.49
2018-05-12T19:09:00.195Z,16.44
2018-05-12T19:11:27.782Z,16.32
2018-05-12T19:13:55.417Z,16.26
2018-05-12T19:16:23.020Z,16.20
2018-05-12T19:18:50.655Z,16.12
2018-05-12T19:21:18.237Z,16.03
2018-05-12T19:23:46.193Z,15.91
2018-05-12T19:26:13.816Z,15.96
2018-05-12T19:28:41.393Z,15.84
2018-05-12T19:31:09.065Z,15.64
2018-05-12T19:33:36.641Z,15.56
2018-05-12T19:36:04.283Z,15.47
2018-05-12T19:38:31.888Z,15.54
2018-05-12T19:40:59.512Z,15.55
2018-05-12T19:43:27.322Z,15.43
2018-05-12T19:45:54.904Z,15.41
2018-05-12T19:48:22.529Z,15.34
2018-05-12T19:50:50.564Z,15.41
2018-05-12T19:53:18.145Z,15.35
2018-05-12T19:55:45.725Z,15.33
2018-05-12T19:58:13.950Z,15.30
2018-05-12T20:00:41.536Z,15.20
2018-05-12T20:03:09.156Z,15.18
2018-05-12T20:05:36.775Z,15.13
2018-05-12T20:08:04.365Z,15.16
2018-05-12T20:10:31.980Z,15.02
2018-05-12T20:12:59.618Z,14.96
2018-05-12T20:15:27.193Z,14.90
2018-05-12T20:17:54.776Z,14.82
2018-05-12T20:20:22.407Z,14.86
2018-05-12T20:22:49.985Z,14.84
2018-05-12T20:25:17.584Z,14.80
2018-05-12T20:27:45.201Z,14.73
2018-05-12T20:30:12.800Z,14.69
2018-05-12T20:32:40.433Z,14.67
2018-05-12T20:35:08.008Z,14.65
2018-05-12T20:37:35.642Z,14.54
2018-05-12T20:40:03.280Z,14.49
2018-05-12T20:42:30.904Z,14.49
2018-05-12T20:44:58.521Z,14.47
2018-05-12T20:47:26.106Z,14.45
2018-05-12T20:49:53.758Z,14.46
2018-05-12T20:52:21.348Z,14.23
2018-05-12T20:54:48.989Z,14.28
2018-05-12T20:57:16.609Z,14.19
2018-05-12T20:59:44.239Z,14.12
2018-05-12T21:02:11.826Z,14.16
2018-05-12T21:04:39.447Z,14.16
2018-05-12T21:07:07.537Z,14.10
2018-05-12T21:09:35.164Z,14.17
2018-05-12T21:12:02.928Z,14.18
2018-05-12T21:14:30.568Z,14.19
2018-05-12T21:16:58.151Z,14.32
2018-05-12T21:19:25.926Z,14.32
2018-05-12T21:21:53.536Z,14.36
2018-05-12T21:24:21.130Z,14.29
2018-05-12T21:26:48.745Z,14.26
2018-05-12T21:29:16.492Z,14.23
2018-05-12T21:31:44.077Z,14.23
2018-05-12T21:34:11.657Z,14.23
2018-05-12T21:36:39.535Z,14.23
2018-05-12T21:39:07.125Z,14.34
2018-05-12T21:41:34.700Z,14.33
2018-05-12T21:44:02.314Z,14.33
2018-05-12T21:46:29.928Z,14.35
2018-05-12T21:48:57.512Z,14.40
2018-05-12T21:51:25.464Z,14.43
2018-05-12T21:53:53.073Z,14.55
2018-05-12T21:56:20.689Z,14.62
2018-05-12T21:58:48.276Z,14.80
2018-05-12T22:01:16.241Z,14.84
2018-05-12T22:03:44.390Z,14.93
2018-05-12T22:06:12.276Z,14.99
2018-05-12T22:08:39.904Z,14.98
2018-05-12T22:11:07.485Z,15.01
2018-05-12T22:13:35.097Z,15.05
2018-05-12T22:16:02.687Z,14.99
2018-05-12T22:18:30.336Z,14.98
2018-05-12T22:20:58.454Z,14.95
2018-05-12T22:23:26.073Z,14.96
2018-05-12T22:25:53.655Z,14.92
2018-05-12T22:28:21.261Z,14.86
2018-05-12T22:30:48.841Z,14.87
2018-05-12T22:33:16.453Z,14.85
2018-05-12T22:35:44.068Z,14.86
2018-05-12T22:38:12.289Z,14.92
2018-05-12T22:40:39.949Z,14.88
2018-05-12T22:43:07.536Z,14.91
2018-05-12T22:45:35.158Z,14.96
2018-05-12T22:48:02.733Z,14.97
2018-05-12T22:50:30.349Z,14.96
2018-05-12T22:52:58.415Z,14.98
2018-05-12T22:55:26.029Z,14.93
2018-05-12T22:57:53.836Z,14.88
2018-05-12T23:00:37.258Z,14.88
2018-05-12T23:03:04.841Z,14.81
2018-05-12T23:05:32.461Z,14.79
2018-05-12T23:08:00.037Z,14.76
2018-05-12T23:10:27.659Z,14.74
2018-05-12T23:12:55.242Z,14.79
2018-05-12T23:15:22.861Z,14.76
2018-05-12T23:17:50.718Z,14.71
2018-05-12T23:20:18.341Z,14.71
2018-05-12T23:22:47.809Z,14.66
2018-05-12T23:25:15.385Z,14.57
2018-05-12T23:27:43.015Z,14.51
2018-05-12T23:30:10.605Z,14.50
2018-05-12T23:32:38.221Z,14.49
2018-05-12T23:35:05.801Z,14.51
2018-05-12T23:37:33.418Z,14.43
2018-05-12T23:40:01.038Z,14.43
2018-05-12T23:42:29.300Z,14.47
2018-05-12T23:44:56.885Z,14.44
2018-05-12T23:47:24.500Z,14.46
2018-05-12T23:49:52.318Z,14.46
2018-05-12T23:52:19.933Z,14.39
2018-05-12T23:54:47.517Z,14.34
2018-05-12T23:57:15.134Z,14.30
2018-05-12T23:59:43.091Z,14.28
